createdAt,value
2023-04-18T00:01:28.884Z,9.10
2023-04-18T00:03:56.691Z,9.10
2023-04-18T00:06:23.569Z,9.10
2023-04-18T00:08:53.610Z,9.20
2023-04-18T00:11:20.681Z,9.10
2023-04-18T00:13:47.599Z,9.10
2023-04-18T00:16:15.080Z,9.10
2023-04-18T00:18:42.115Z,9.00
2023-04-18T00:21:08.975Z,9.00
2023-04-18T00:23:36.005Z,9.00
2023-04-18T00:26:03.311Z,9.00
2023-04-18T00:28:30.121Z,8.90
2023-04-18T00:30:57.075Z,8.90
2023-04-18T00:33:23.915Z,8.90
2023-04-18T00:35:54.323Z,8.80
2023-04-18T00:38:21.089Z,8.80
2023-04-18T00:40:48.262Z,8.80
2023-04-18T00:43:16.818Z,8.80
2023-04-18T00:45:44.917Z,8.80
2023-04-18T00:48:12.224Z,8.70
2023-04-18T00:50:41.530Z,8.60
2023-04-18T00:53:11.117Z,8.60
2023-04-18T00:55:39.117Z,8.60
2023-04-18T00:58:06.342Z,8.60
2023-04-18T01:00:33.160Z,8.50
2023-04-18T01:03:00.929Z,8.50
2023-04-18T01:05:28.062Z,8.50
2023-04-18T01:08:00.762Z,8.50
2023-04-18T01:10:28.918Z,8.40
2023-04-18T01:13:18.060Z,8.30
2023-04-18T01:15:47.637Z,8.30
2023-04-18T01:18:16.847Z,8.30
2023-04-18T01:20:50.683Z,8.30
2023-04-18T01:23:21.170Z,8.20
2023-04-18T01:25:51.425Z,8.20
2023-04-18T01:28:22.676Z,8.20
2023-04-18T01:30:49.629Z,8.20
2023-04-18T01:33:16.369Z,8.10
2023-04-18T01:35:44.454Z,8.10
2023-04-18T01:38:11.341Z,8.10
2023-04-18T01:40:38.155Z,8.00
2023-04-18T01:43:04.950Z,8.00
2023-04-18T01:45:31.704Z,7.90
2023-04-18T01:47:58.553Z,7.90
2023-04-18T01:50:25.504Z,7.90
2023-04-18T01:52:52.415Z,7.80
2023-04-18T01:55:19.325Z,7.80
2023-04-18T01:57:46.353Z,7.70
2023-04-18T02:00:13.936Z,7.70
2023-04-18T02:02:43.505Z,7.70
2023-04-18T02:05:10.693Z,7.70
2023-04-18T02:07:39.671Z,7.70
2023-04-18T02:10:07.256Z,7.60
2023-04-18T02:12:34.311Z,7.70
2023-04-18T02:15:01.377Z,7.60
2023-04-18T02:17:29.182Z,7.60
2023-04-18T02:19:56.220Z,7.60
2023-04-18T02:22:22.984Z,7.60
2023-04-18T02:24:49.758Z,7.60
2023-04-18T02:27:18.070Z,7.60
2023-04-18T02:29:44.810Z,7.50
2023-04-18T02:32:11.639Z,7.40
2023-04-18T02:34:38.499Z,7.50
2023-04-18T02:37:05.348Z,7.40
2023-04-18T02:39:32.544Z,7.40
2023-04-18T02:41:59.477Z,7.30
2023-04-18T02:44:26.273Z,7.30
2023-04-18T02:46:53.085Z,7.30
2023-04-18T02:49:20.057Z,7.30
2023-04-18T02:51:47.626Z,7.40
2023-04-18T02:54:16.015Z,7.30
2023-04-18T02:57:01.247Z,7.40
2023-04-18T02:59:40.444Z,7.30
2023-04-18T03:02:23.290Z,7.30
2023-04-18T03:04:56.273Z,7.30
2023-04-18T03:07:23.369Z,7.30
2023-04-18T03:09:51.714Z,7.20
2023-04-18T03:12:23.866Z,7.20
2023-04-18T03:14:51.578Z,7.20
2023-04-18T03:17:18.584Z,7.20
2023-04-18T03:19:48.528Z,7.20
2023-04-18T03:22:16.961Z,7.20
2023-04-18T03:24:55.809Z,7.10
2023-04-18T03:27:33.390Z,7.10
2023-04-18T03:30:01.216Z,7.10
2023-04-18T03:32:28.342Z,7.10
2023-04-18T03:34:55.161Z,7.10
2023-04-18T03:37:22.006Z,7.10
2023-04-18T03:39:53.250Z,7.10
2023-04-18T03:42:21.031Z,7.10
2023-04-18T03:44:48.861Z,7.10
2023-04-18T03:47:16.867Z,7.00
2023-04-18T03:49:47.198Z,7.10
2023-04-18T03:52:15.978Z,6.90
2023-04-18T03:54:42.960Z,6.90
2023-04-18T03:57:10.257Z,6.90
2023-04-18T03:59:37.733Z,6.90
2023-04-18T04:02:05.948Z,6.90
2023-04-18T04:04:32.826Z,6.90
2023-04-18T04:07:00.290Z,6.90
2023-04-18T04:09:27.130Z,6.80
2023-04-18T04:11:54.000Z,6.80
2023-04-18T04:14:22.607Z,6.80
2023-04-18T04:16:49.469Z,6.80
2023-04-18T04:19:17.366Z,6.80
2023-04-18T04:21:54.929Z,6.80
2023-04-18T04:24:22.645Z,6.90
2023-04-18T04:26:50.808Z,6.90
2023-04-18T04:29:21.405Z,7.00
2023-04-18T04:31:48.872Z,7.10
2023-04-18T04:34:29.857Z,7.10
2023-04-18T04:36:56.893Z,7.20
2023-04-18T04:39:26.067Z,7.10
2023-04-18T04:42:19.777Z,7.10
2023-04-18T04:44:55.839Z,7.10
2023-04-18T04:47:23.217Z,7.10
2023-04-18T04:49:49.984Z,7.10
2023-04-18T04:52:16.823Z,7.20
2023-04-18T04:54:45.793Z,7.20
2023-04-18T04:57:15.439Z,7.20
2023-04-18T04:59:42.363Z,7.10
2023-04-18T05:02:09.360Z,7.20
2023-04-18T05:04:36.602Z,7.20
2023-04-18T05:07:03.452Z,7.20
2023-04-18T05:09:30.252Z,7.20
2023-04-18T05:11:57.178Z,7.20
2023-04-18T05:14:24.020Z,7.20
2023-04-18T05:16:50.966Z,7.20
2023-04-18T05:19:17.815Z,7.20
2023-04-18T05:21:44.656Z,7.20
2023-04-18T05:24:11.635Z,7.20
2023-04-18T05:26:38.813Z,7.20
2023-04-18T05:29:05.677Z,7.30
2023-04-18T05:31:32.630Z,7.40
2023-04-18T05:33:59.454Z,7.30
2023-04-18T05:36:26.631Z,7.40
2023-04-18T05:38:53.498Z,7.30
2023-04-18T05:41:20.373Z,7.30
2023-04-18T05:44:01.850Z,7.30
2023-04-18T05:46:32.433Z,7.20
2023-04-18T05:48:59.387Z,7.40
2023-04-18T05:51:26.703Z,7.20
2023-04-18T05:53:53.524Z,7.30
2023-04-18T05:56:20.715Z,7.30
2023-04-18T05:58:47.752Z,7.30
2023-04-18T06:01:14.581Z,7.40
2023-04-18T06:03:41.383Z,7.40
2023-04-18T06:06:08.771Z,7.50
2023-04-18T06:08:35.656Z,7.40
2023-04-18T06:11:02.713Z,7.40
2023-04-18T06:13:29.546Z,7.40
2023-04-18T06:15:56.474Z,7.60
2023-04-18T06:18:23.639Z,7.60
2023-04-18T06:20:51.577Z,7.60
2023-04-18T06:23:18.439Z,7.50
2023-04-18T06:25:45.307Z,7.60
2023-04-18T06:28:12.070Z,7.50
2023-04-18T06:30:39.133Z,7.60
2023-04-18T06:33:10.365Z,7.70
2023-04-18T06:35:38.068Z,7.60
2023-04-18T06:38:05.213Z,7.50
2023-04-18T06:40:32.128Z,7.60
2023-04-18T06:42:58.969Z,7.50
2023-04-18T06:45:25.936Z,7.70
2023-04-18T06:47:53.035Z,7.90
2023-04-18T06:50:20.121Z,8.00
2023-04-18T06:52:46.995Z,8.20
2023-04-18T06:55:14.217Z,8.20
2023-04-18T06:57:42.895Z,8.40
2023-04-18T07:00:10.976Z,8.40
2023-04-18T07:02:39.680Z,8.40
2023-04-18T07:05:07.872Z,8.50
2023-04-18T07:07:35.439Z,8.70
2023-04-18T07:10:02.414Z,8.70
2023-04-18T07:12:29.174Z,8.70
2023-04-18T07:14:56.033Z,8.70
2023-04-18T07:17:22.830Z,8.60
2023-04-18T07:19:49.729Z,8.50
2023-04-18T07:22:16.594Z,8.60
2023-04-18T07:24:44.059Z,8.70
2023-04-18T07:27:10.912Z,8.60
2023-04-18T07:29:37.923Z,8.60
2023-04-18T07:32:06.234Z,8.60
2023-04-18T07:34:36.070Z,8.80
2023-04-18T07:37:03.329Z,8.70
2023-04-18T07:39:31.874Z,8.70
2023-04-18T07:41:58.837Z,8.80
2023-04-18T07:44:25.792Z,8.90
2023-04-18T07:46:52.582Z,8.90
2023-04-18T07:49:19.439Z,9.00
2023-04-18T07:51:46.219Z,9.10
2023-04-18T07:54:13.064Z,9.10
2023-04-18T07:56:39.957Z,9.20
2023-04-18T07:59:06.818Z,9.40
2023-04-18T08:01:33.968Z,9.40
2023-04-18T08:04:02.046Z,9.40
2023-04-18T08:06:29.619Z,9.70
2023-04-18T08:08:58.887Z,9.80
2023-04-18T08:11:26.172Z,9.80
2023-04-18T08:13:52.980Z,10.00
2023-04-18T08:16:19.864Z,10.10
2023-04-18T08:18:47.004Z,10.30
2023-04-18T08:21:14.003Z,10.60
2023-04-18T08:23:41.074Z,10.30
2023-04-18T08:26:07.844Z,10.10
2023-04-18T08:28:34.597Z,10.10
2023-04-18T08:31:01.793Z,10.20
2023-04-18T08:33:28.957Z,10.20
2023-04-18T08:35:56.073Z,10.60
2023-04-18T08:38:22.909Z,10.70
2023-04-18T08:40:49.915Z,11.00
2023-04-18T08:43:17.095Z,11.20
2023-04-18T08:45:45.642Z,11.20
2023-04-18T08:48:14.984Z,11.20
2023-04-18T08:50:42.530Z,11.10
2023-04-18T08:53:09.827Z,11.00
2023-04-18T08:55:37.218Z,11.10
2023-04-18T08:58:06.818Z,10.90
2023-04-18T09:00:34.079Z,11.10
2023-04-18T09:03:03.521Z,11.20
2023-04-18T09:05:30.673Z,10.70
2023-04-18T09:07:57.792Z,10.80
2023-04-18T09:10:32.602Z,10.70
2023-04-18T09:13:03.111Z,11.00
2023-04-18T09:15:30.877Z,11.30
2023-04-18T09:18:02.559Z,11.40
2023-04-18T09:20:40.875Z,11.40
2023-04-18T09:23:11.135Z,11.10
2023-04-18T09:25:46.620Z,11.30
2023-04-18T09:28:32.993Z,11.30
2023-04-18T09:31:10.052Z,11.20
2023-04-18T09:33:37.580Z,11.20
2023-04-18T09:36:22.251Z,11.70
2023-04-18T09:38:53.838Z,11.70
2023-04-18T09:41:25.256Z,12.10
2023-04-18T09:44:15.646Z,12.40
2023-04-18T09:46:46.648Z,12.20
2023-04-18T09:49:14.845Z,12.40
2023-04-18T09:51:43.857Z,12.20
2023-04-18T09:54:17.551Z,12.00
2023-04-18T09:56:45.906Z,12.00
2023-04-18T09:59:17.746Z,12.10
2023-04-18T10:01:48.359Z,12.20
2023-04-18T10:04:18.162Z,12.00
2023-04-18T10:06:46.747Z,11.90
2023-04-18T10:09:16.090Z,11.80
2023-04-18T10:11:44.368Z,11.70
2023-04-18T10:14:15.274Z,11.80
2023-04-18T10:16:45.532Z,11.50
2023-04-18T10:19:30.049Z,11.80
2023-04-18T10:21:59.411Z,12.10
2023-04-18T10:24:58.705Z,12.00
2023-04-18T10:27:59.845Z,11.70
2023-04-18T10:30:41.576Z,11.80
2023-04-18T10:33:33.722Z,11.50
2023-04-18T10:36:05.130Z,11.70
2023-04-18T10:38:34.162Z,11.40
2023-04-18T10:41:14.911Z,11.30
2023-04-18T10:44:09.676Z,11.20
2023-04-18T10:46:50.416Z,11.40
2023-04-18T10:49:23.267Z,11.60
2023-04-18T10:51:55.661Z,11.70
2023-04-18T10:55:07.275Z,11.70
2023-04-18T10:57:45.732Z,11.90
2023-04-18T11:00:22.798Z,11.90
2023-04-18T11:02:54.175Z,12.00
2023-04-18T11:05:25.564Z,11.90
2023-04-18T11:07:53.866Z,12.00
2023-04-18T11:10:25.375Z,12.60
2023-04-18T11:12:54.615Z,13.10
2023-04-18T11:15:24.277Z,12.90
2023-04-18T11:18:04.952Z,12.80
2023-04-18T11:20:45.746Z,12.90
2023-04-18T11:23:23.906Z,12.80
2023-04-18T11:25:53.512Z,12.60
2023-04-18T11:28:26.451Z,12.60
2023-04-18T11:31:02.733Z,12.60
2023-04-18T11:33:29.893Z,12.60
2023-04-18T11:35:59.942Z,12.50
2023-04-18T11:38:30.872Z,12.70
2023-04-18T11:40:57.881Z,12.80
2023-04-18T11:43:25.895Z,12.70
2023-04-18T11:45:58.211Z,12.90
2023-04-18T11:48:38.722Z,12.80
2023-04-18T11:51:07.628Z,12.90
2023-04-18T11:53:36.647Z,13.00
2023-04-18T11:56:04.973Z,13.00
2023-04-18T11:58:34.036Z,12.80
2023-04-18T12:01:23.378Z,13.20
2023-04-18T12:04:05.443Z,13.30
2023-04-18T12:06:54.099Z,13.20
2023-04-18T12:09:24.482Z,12.80
2023-04-18T12:11:59.613Z,13.00
2023-04-18T12:14:26.715Z,13.10
2023-04-18T12:16:53.583Z,12.80
2023-04-18T12:19:21.430Z,12.60
2023-04-18T12:21:55.253Z,12.70
2023-04-18T12:24:26.563Z,12.70
2023-04-18T12:26:53.512Z,13.00
2023-04-18T12:29:20.375Z,13.00
2023-04-18T12:31:47.622Z,13.20
2023-04-18T12:34:14.711Z,13.00
2023-04-18T12:36:42.790Z,13.10
2023-04-18T12:39:10.260Z,13.10
2023-04-18T12:41:37.269Z,13.00
2023-04-18T12:44:04.580Z,13.20
2023-04-18T12:46:31.666Z,13.40
2023-04-18T12:48:58.578Z,13.40
2023-04-18T12:51:26.496Z,13.30
2023-04-18T12:53:53.758Z,13.20
2023-04-18T12:56:21.236Z,13.20
2023-04-18T12:58:47.998Z,13.30
2023-04-18T13:01:15.208Z,13.20
2023-04-18T13:03:42.164Z,13.20
2023-04-18T13:06:10.021Z,13.10
2023-04-18T13:08:38.273Z,13.20
2023-04-18T13:11:05.199Z,13.20
2023-04-18T13:13:33.852Z,13.20
2023-04-18T13:16:02.006Z,13.20
2023-04-18T13:18:28.840Z,13.10
2023-04-18T13:20:55.886Z,13.00
2023-04-18T13:23:22.756Z,13.10
2023-04-18T13:25:49.567Z,13.10
2023-04-18T13:28:16.325Z,13.20
2023-04-18T13:30:43.127Z,13.10
2023-04-18T13:33:10.626Z,13.10
2023-04-18T13:35:37.547Z,13.10
2023-04-18T13:38:04.398Z,13.10
2023-04-18T13:40:33.360Z,13.10
2023-04-18T13:43:00.348Z,13.00
2023-04-18T13:45:27.360Z,13.10
2023-04-18T13:47:54.335Z,13.00
2023-04-18T13:50:22.225Z,13.00
2023-04-18T13:52:51.707Z,12.90
2023-04-18T13:55:19.782Z,13.00
2023-04-18T13:57:46.718Z,13.00
2023-04-18T14:00:15.134Z,13.10
2023-04-18T14:02:42.347Z,13.20
2023-04-18T14:05:10.735Z,13.30
2023-04-18T14:07:38.405Z,13.30
2023-04-18T14:10:06.290Z,13.30
2023-04-18T14:12:34.104Z,13.40
2023-04-18T14:15:01.151Z,13.50
2023-04-18T14:17:27.913Z,13.40
2023-04-18T14:19:54.872Z,13.50
2023-04-18T14:22:21.621Z,13.40
2023-04-18T14:24:49.006Z,13.30
2023-04-18T14:27:15.834Z,13.40
2023-04-18T14:29:42.610Z,13.40
2023-04-18T14:32:09.361Z,13.60
2023-04-18T14:34:37.428Z,13.80
2023-04-18T14:37:06.205Z,14.00
2023-04-18T14:39:33.013Z,14.30
2023-04-18T14:41:59.845Z,14.20
2023-04-18T14:44:26.641Z,13.80
2023-04-18T14:46:53.424Z,13.80
2023-04-18T14:49:20.234Z,13.80
2023-04-18T14:51:47.116Z,13.80
2023-04-18T14:54:13.846Z,13.90
2023-04-18T14:56:40.638Z,14.00
2023-04-18T14:59:07.514Z,13.90
2023-04-18T15:01:34.442Z,14.00
2023-04-18T15:04:03.519Z,13.90
2023-04-18T15:06:30.802Z,13.70
2023-04-18T15:08:57.541Z,13.60
2023-04-18T15:11:24.435Z,13.60
2023-04-18T15:13:51.317Z,13.80
2023-04-18T15:16:18.344Z,14.00
2023-04-18T15:18:45.219Z,13.90
2023-04-18T15:21:12.081Z,13.90
2023-04-18T15:23:38.943Z,14.10
2023-04-18T15:26:06.081Z,14.20
2023-04-18T15:28:32.912Z,14.40
2023-04-18T15:30:59.870Z,14.40
2023-04-18T15:33:26.720Z,14.30
2023-04-18T15:35:55.540Z,14.00
2023-04-18T15:38:22.342Z,13.90
2023-04-18T15:40:49.097Z,13.90
2023-04-18T15:43:17.140Z,14.00
2023-04-18T15:45:44.508Z,14.10
2023-04-18T15:48:12.959Z,14.10
2023-04-18T15:50:40.348Z,14.30
2023-04-18T15:53:07.208Z,14.30
2023-04-18T15:55:34.321Z,14.30
2023-04-18T15:58:01.567Z,14.20
2023-04-18T16:00:28.350Z,14.10
2023-04-18T16:02:55.376Z,14.10
2023-04-18T16:05:22.526Z,14.00
2023-04-18T16:07:49.334Z,13.90
2023-04-18T16:10:16.240Z,14.00
2023-04-18T16:12:43.103Z,14.10
2023-04-18T16:15:10.837Z,14.20
2023-04-18T16:17:38.675Z,14.10
2023-04-18T16:20:08.267Z,14.30
2023-04-18T16:22:35.470Z,14.30
2023-04-18T16:25:02.948Z,14.30
2023-04-18T16:27:30.046Z,14.50
2023-04-18T16:29:56.846Z,14.40
2023-04-18T16:32:23.701Z,14.40
2023-04-18T16:34:50.585Z,14.40
2023-04-18T16:37:17.511Z,14.30
2023-04-18T16:39:44.336Z,14.20
2023-04-18T16:42:12.430Z,14.20
2023-04-18T16:44:40.356Z,14.20
2023-04-18T16:47:08.256Z,14.10
2023-04-18T16:49:35.237Z,14.20
2023-04-18T16:52:02.213Z,14.20
2023-04-18T16:54:29.719Z,14.30
2023-04-18T16:56:56.921Z,14.40
2023-04-18T16:59:24.077Z,14.30
2023-04-18T17:01:51.148Z,14.20
2023-04-18T17:04:18.238Z,14.10
2023-04-18T17:06:45.177Z,14.10
2023-04-18T17:09:13.584Z,14.00
2023-04-18T17:11:43.433Z,14.00
2023-04-18T17:14:10.240Z,14.00
2023-04-18T17:16:41.960Z,14.00
2023-04-18T17:19:10.238Z,14.00
2023-04-18T17:21:38.128Z,14.00
2023-04-18T17:24:06.956Z,14.00
2023-04-18T17:26:35.277Z,14.00
2023-04-18T17:29:04.030Z,14.10
2023-04-18T17:31:33.979Z,14.10
2023-04-18T17:34:01.016Z,14.10
2023-04-18T17:36:27.969Z,14.10
2023-04-18T17:38:55.169Z,14.00
2023-04-18T17:41:22.190Z,13.90
2023-04-18T17:43:53.298Z,13.90
2023-04-18T17:46:20.468Z,13.90
2023-04-18T17:48:47.248Z,13.80
2023-04-18T17:51:16.189Z,13.90
2023-04-18T17:53:43.260Z,13.80
2023-04-18T17:56:10.177Z,13.70
2023-04-18T17:58:37.122Z,13.70
2023-04-18T18:01:04.019Z,13.60
2023-04-18T18:03:31.255Z,13.60
2023-04-18T18:05:58.167Z,13.70
2023-04-18T18:08:25.844Z,13.50
2023-04-18T18:10:52.720Z,13.50
2023-04-18T18:13:19.581Z,13.40
2023-04-18T18:15:46.473Z,13.50
2023-04-18T18:18:26.914Z,13.30
2023-04-18T18:20:54.227Z,13.30
2023-04-18T18:23:21.655Z,13.30
2023-04-18T18:25:48.575Z,13.30
2023-04-18T18:28:15.490Z,13.30
2023-04-18T18:30:42.695Z,13.30
2023-04-18T18:33:09.744Z,13.20
2023-04-18T18:35:36.868Z,13.20
2023-04-18T18:38:03.692Z,13.20
2023-04-18T18:40:30.612Z,13.10
2023-04-18T18:42:57.436Z,13.00
2023-04-18T18:45:24.385Z,13.00
2023-04-18T18:47:51.252Z,13.00
2023-04-18T18:50:18.435Z,12.90
2023-04-18T18:52:45.401Z,12.90
2023-04-18T18:55:12.574Z,12.80
2023-04-18T18:57:39.473Z,12.70
2023-04-18T19:00:11.767Z,12.80
2023-04-18T19:02:39.652Z,12.60
2023-04-18T19:05:07.371Z,12.60
2023-04-18T19:07:34.136Z,12.60
2023-04-18T19:10:01.561Z,12.70
2023-04-18T19:12:29.162Z,12.60
2023-04-18T19:14:56.432Z,12.60
2023-04-18T19:17:24.734Z,12.50
2023-04-18T19:19:53.204Z,12.50
2023-04-18T19:22:20.161Z,12.50
2023-04-18T19:24:47.423Z,12.40
2023-04-18T19:27:14.273Z,12.40
2023-04-18T19:29:41.284Z,12.40
2023-04-18T19:32:08.179Z,12.40
2023-04-18T19:34:35.236Z,12.30
2023-04-18T19:37:02.120Z,12.30
2023-04-18T19:39:29.614Z,12.30
2023-04-18T19:41:56.949Z,12.30
2023-04-18T19:44:23.772Z,12.20
2023-04-18T19:46:50.676Z,12.20
2023-04-18T19:49:17.531Z,12.10
2023-04-18T19:51:44.335Z,12.10
2023-04-18T19:54:11.098Z,12.00
2023-04-18T19:56:37.896Z,12.00
2023-04-18T19:59:06.129Z,12.00
2023-04-18T20:01:33.074Z,12.00
2023-04-18T20:04:00.240Z,12.00
2023-04-18T20:06:27.624Z,11.90
2023-04-18T20:08:54.544Z,11.90
2023-04-18T20:11:22.144Z,11.90
2023-04-18T20:13:49.312Z,12.00
2023-04-18T20:16:16.833Z,11.90
2023-04-18T20:18:47.142Z,11.90
2023-04-18T20:21:14.025Z,11.90
2023-04-18T20:23:42.472Z,11.80
2023-04-18T20:26:09.667Z,11.80
2023-04-18T20:28:37.716Z,11.80
2023-04-18T20:31:04.559Z,11.80
2023-04-18T20:33:31.381Z,11.70
2023-04-18T20:35:58.859Z,11.70
2023-04-18T20:38:29.343Z,11.70
2023-04-18T20:40:58.001Z,11.60
2023-04-18T20:43:24.868Z,11.60
2023-04-18T20:45:51.787Z,11.60
2023-04-18T20:48:19.369Z,11.60
2023-04-18T20:50:51.057Z,11.50
2023-04-18T20:53:22.328Z,11.50
2023-04-18T20:55:49.502Z,11.50
2023-04-18T20:58:16.688Z,11.50
2023-04-18T21:00:44.544Z,11.40
2023-04-18T21:03:15.417Z,11.40
2023-04-18T21:05:43.744Z,11.40
2023-04-18T21:08:11.306Z,11.40
2023-04-18T21:10:38.200Z,11.30
2023-04-18T21:13:05.187Z,11.30
2023-04-18T21:15:32.031Z,11.20
2023-04-18T21:17:58.896Z,11.20
2023-04-18T21:20:25.931Z,11.20
2023-04-18T21:22:52.678Z,11.20
2023-04-18T21:25:21.220Z,11.20
2023-04-18T21:27:50.396Z,11.20
2023-04-18T21:30:17.362Z,11.20
2023-04-18T21:32:45.014Z,11.10
2023-04-18T21:35:11.849Z,11.00
2023-04-18T21:37:39.063Z,11.10
2023-04-18T21:40:07.101Z,11.10
2023-04-18T21:42:35.405Z,11.00
2023-04-18T21:45:02.464Z,11.00
2023-04-18T21:47:29.700Z,11.00
2023-04-18T21:49:56.539Z,11.00
2023-04-18T21:52:23.338Z,10.90
2023-04-18T21:54:50.236Z,10.90
2023-04-18T21:57:17.091Z,10.90
2023-04-18T21:59:43.890Z,10.90
2023-04-18T22:02:10.711Z,10.90
2023-04-18T22:04:37.960Z,10.90
2023-04-18T22:07:04.761Z,10.80
2023-04-18T22:09:34.240Z,10.80
2023-04-18T22:12:03.138Z,10.80
2023-04-18T22:14:32.122Z,10.80
2023-04-18T22:17:03.043Z,10.70
2023-04-18T22:19:31.167Z,10.70
2023-04-18T22:21:58.039Z,10.80
2023-04-18T22:24:25.932Z,10.70
2023-04-18T22:26:53.242Z,10.70
2023-04-18T22:29:20.064Z,10.70
2023-04-18T22:31:46.993Z,10.70
2023-04-18T22:34:14.294Z,10.60
2023-04-18T22:36:42.687Z,10.70
2023-04-18T22:39:09.608Z,10.60
2023-04-18T22:41:36.400Z,10.60
2023-04-18T22:44:03.412Z,10.50
2023-04-18T22:46:30.339Z,10.50
2023-04-18T22:48:57.418Z,10.50
2023-04-18T22:51:24.379Z,10.40
2023-04-18T22:53:51.206Z,10.40
2023-04-18T22:56:18.009Z,10.40
2023-04-18T22:58:44.913Z,10.40
2023-04-18T23:01:11.680Z,10.40
2023-04-18T23:03:38.644Z,10.40
2023-04-18T23:06:07.962Z,10.40
2023-04-18T23:08:34.813Z,10.30
2023-04-18T23:11:01.681Z,10.30
2023-04-18T23:13:28.540Z,10.20
2023-04-18T23:15:55.353Z,10.20
2023-04-18T23:18:22.376Z,10.20
2023-04-18T23:20:49.168Z,10.20
2023-04-18T23:23:15.971Z,10.20
2023-04-18T23:25:44.018Z,10.20
2023-04-18T23:28:10.829Z,10.10
2023-04-18T23:30:37.639Z,10.20
2023-04-18T23:33:04.659Z,10.20
2023-04-18T23:35:31.503Z,10.20
2023-04-18T23:37:58.718Z,10.10
2023-04-18T23:40:25.907Z,10.10
2023-04-18T23:42:52.791Z,10.00
2023-04-18T23:45:19.687Z,10.00
2023-04-18T23:47:46.545Z,10.00
2023-04-18T23:50:13.349Z,10.00
2023-04-18T23:52:40.467Z,10.00
2023-04-18T23:55:08.036Z,10.00
2023-04-18T23:57:34.874Z,10.00
